createdAt,value
2019-04-22T00:00:55.719Z,11.07
2019-04-22T00:01:58.172Z,11.00
2019-04-22T00:02:58.304Z,10.96
2019-04-22T00:04:00.470Z,10.89
2019-04-22T00:05:05.377Z,10.84
2019-04-22T00:06:16.578Z,10.79
2019-04-22T00:07:17.410Z,10.74
2019-04-22T00:08:17.156Z,10.64
2019-04-22T00:09:17.678Z,10.56
2019-04-22T00:10:21.155Z,10.48
2019-04-22T00:11:18.157Z,10.40
2019-04-22T00:12:22.273Z,10.34
2019-04-22T00:13:22.202Z,10.30
2019-04-22T00:14:14.983Z,10.25
2019-04-22T00:15:10.018Z,10.17
2019-04-22T00:16:14.296Z,10.12
2019-04-22T00:17:23.459Z,10.07
2019-04-22T00:18:22.302Z,9.99
2019-04-22T00:19:20.788Z,9.92
2019-04-22T00:20:16.946Z,9.86
2019-04-22T00:21:19.715Z,9.72
2019-04-22T00:23:20.373Z,9.58
2019-04-22T00:24:17.115Z,9.51
2019-04-22T00:25:19.338Z,9.48
2019-04-22T00:26:16.537Z,9.47
2019-04-22T00:27:20.170Z,9.46
2019-04-22T00:28:19.960Z,9.46
2019-04-22T00:29:37.093Z,9.50
2019-04-22T00:30:16.487Z,9.50
2019-04-22T00:31:15.535Z,9.47
2019-04-22T00:32:14.105Z,9.44
2019-04-22T00:33:13.348Z,9.37
2019-04-22T00:34:09.333Z,9.36
2019-04-22T00:35:13.322Z,9.32
2019-04-22T00:36:16.222Z,9.32
2019-04-22T00:37:17.523Z,9.29
2019-04-22T00:38:17.295Z,9.29
2019-04-22T00:39:21.649Z,9.32
2019-04-22T00:40:23.886Z,9.34
2019-04-22T00:41:25.592Z,9.36
2019-04-22T00:42:14.748Z,9.39
2019-04-22T00:43:19.738Z,9.40
2019-04-22T00:44:21.857Z,9.43
2019-04-22T00:45:24.408Z,9.44
2019-04-22T00:46:23.916Z,9.48
2019-04-22T00:47:23.428Z,9.44
2019-04-22T00:48:22.362Z,9.44
2019-04-22T00:49:59.603Z,9.40
2019-04-22T00:50:24.113Z,9.41
2019-04-22T00:51:36.635Z,9.44
2019-04-22T00:52:16.597Z,9.41
2019-04-22T00:53:22.542Z,9.32
2019-04-22T00:54:15.683Z,9.25
2019-04-22T00:55:23.424Z,9.21
2019-04-22T00:56:30.243Z,9.19
2019-04-22T00:57:15.665Z,9.18
2019-04-22T00:58:16.228Z,9.19
2019-04-22T00:59:20.116Z,9.19
2019-04-22T01:00:21.373Z,9.16
2019-04-22T01:02:22.941Z,9.08
2019-04-22T01:03:19.684Z,9.02
2019-04-22T01:04:25.636Z,8.95
2019-04-22T01:05:21.400Z,8.92
2019-04-22T01:06:17.327Z,8.85
2019-04-22T01:07:21.748Z,8.81
2019-04-22T01:08:21.374Z,8.79
2019-04-22T01:09:19.159Z,8.76
2019-04-22T01:10:19.055Z,8.74
2019-04-22T01:11:22.730Z,8.69
2019-04-22T01:12:19.683Z,8.70
2019-04-22T01:13:19.506Z,8.71
2019-04-22T01:14:14.508Z,8.71
2019-04-22T01:15:15.829Z,8.70
2019-04-22T01:16:20.344Z,8.74
2019-04-22T01:17:17.585Z,8.78
2019-04-22T01:18:11.508Z,8.78
2019-04-22T01:19:12.288Z,8.85
2019-04-22T01:20:43.612Z,8.91
2019-04-22T01:21:37.003Z,8.92
2019-04-22T01:22:19.086Z,9.00
2019-04-22T01:23:11.256Z,9.11
2019-04-22T01:24:14.039Z,9.16
2019-04-22T01:25:14.386Z,9.25
2019-04-22T01:26:13.976Z,9.39
2019-04-22T01:27:08.075Z,9.56
2019-04-22T01:28:06.325Z,9.66
2019-04-22T01:29:05.024Z,9.73
2019-04-22T01:30:03.723Z,9.68
2019-04-22T01:31:00.082Z,9.64
2019-04-22T01:31:51.355Z,9.58
2019-04-22T01:32:53.891Z,9.51
2019-04-22T01:34:05.443Z,9.46
2019-04-22T01:35:05.881Z,9.41
2019-04-22T01:36:10.606Z,9.37
2019-04-22T01:37:07.621Z,9.29
2019-04-22T01:38:08.031Z,9.22
2019-04-22T01:39:15.365Z,9.14
2019-04-22T01:40:17.802Z,9.08
2019-04-22T01:41:16.530Z,9.08
2019-04-22T01:42:10.465Z,9.06
2019-04-22T01:43:18.250Z,9.03
2019-04-22T01:44:35.296Z,8.97
2019-04-22T01:45:19.346Z,8.97
2019-04-22T01:46:23.503Z,8.92
2019-04-22T01:47:21.417Z,8.97
2019-04-22T01:48:17.735Z,8.94
2019-04-22T01:49:16.843Z,8.97
2019-04-22T01:50:24.055Z,8.99
2019-04-22T01:51:12.269Z,8.97
2019-04-22T01:52:15.912Z,9.00
2019-04-22T01:53:24.782Z,9.02
2019-04-22T01:54:22.215Z,9.03
2019-04-22T01:55:25.132Z,9.02
2019-04-22T01:56:20.504Z,9.03
2019-04-22T01:57:10.936Z,9.00
2019-04-22T01:58:11.086Z,8.97
2019-04-22T01:59:12.521Z,8.99
2019-04-22T02:00:05.051Z,8.99
2019-04-22T02:01:22.186Z,8.99
2019-04-22T02:02:16.443Z,8.97
2019-04-22T02:03:22.301Z,8.97
2019-04-22T02:04:17.617Z,9.00
2019-04-22T02:05:18.729Z,9.04
2019-04-22T02:06:28.809Z,9.21
2019-04-22T02:07:16.478Z,9.37
2019-04-22T02:08:28.406Z,9.51
2019-04-22T02:09:24.093Z,9.82
2019-04-22T02:10:26.887Z,9.99
2019-04-22T02:11:17.352Z,10.13
2019-04-22T02:13:20.056Z,10.37
2019-04-22T02:14:19.920Z,10.42
2019-04-22T02:15:17.151Z,10.42
2019-04-22T02:16:15.170Z,10.41
2019-04-22T02:17:17.674Z,10.37
2019-04-22T02:19:22.534Z,10.40
2019-04-22T02:20:19.827Z,10.35
2019-04-22T02:21:13.805Z,10.37
2019-04-22T02:22:17.616Z,10.38
2019-04-22T02:23:42.852Z,10.38
2019-04-22T02:24:18.035Z,10.41
2019-04-22T02:25:15.918Z,10.38
2019-04-22T02:26:16.384Z,10.34
2019-04-22T02:27:24.384Z,10.28
2019-04-22T02:28:26.115Z,10.25
2019-04-22T02:29:17.042Z,10.19
2019-04-22T02:30:13.811Z,10.13
2019-04-22T02:31:25.852Z,10.09
2019-04-22T02:32:27.616Z,10.02
2019-04-22T02:33:48.096Z,10.02
2019-04-22T02:35:35.871Z,9.97
2019-04-22T02:37:21.184Z,9.94
2019-04-22T02:38:34.816Z,9.91
2019-04-22T02:39:20.072Z,9.84
2019-04-22T02:40:17.177Z,9.80
2019-04-22T02:42:14.052Z,9.77
2019-04-22T02:43:34.155Z,9.76
2019-04-22T02:44:26.367Z,9.76
2019-04-22T02:45:28.144Z,9.80
2019-04-22T02:48:34.044Z,10.04
2019-04-22T02:50:36.703Z,10.07
2019-04-22T02:52:26.237Z,10.19
2019-04-22T02:53:58.454Z,10.33
2019-04-22T02:55:25.318Z,10.53
2019-04-22T02:56:27.181Z,10.56
2019-04-22T02:58:32.049Z,10.59
2019-04-22T03:00:35.027Z,10.64
2019-04-22T03:01:29.943Z,10.64
2019-04-22T03:03:33.192Z,10.60
2019-04-22T03:04:20.487Z,10.61
2019-04-22T03:05:33.184Z,10.64
2019-04-22T03:07:18.589Z,11.10
2019-04-22T03:08:23.563Z,11.18
2019-04-22T03:12:23.725Z,11.30
2019-04-22T03:13:29.238Z,11.41
2019-04-22T03:14:38.267Z,11.43
2019-04-22T03:15:15.057Z,11.45
2019-04-22T03:17:25.540Z,11.33
2019-04-22T03:18:34.718Z,11.25
2019-04-22T03:20:14.192Z,11.07
2019-04-22T03:21:18.809Z,11.02
2019-04-22T03:23:38.371Z,10.94
2019-04-22T03:24:25.843Z,10.96
2019-04-22T03:25:51.786Z,11.05
2019-04-22T03:26:30.780Z,11.08
2019-04-22T03:27:16.301Z,11.07
2019-04-22T03:28:31.808Z,11.10
2019-04-22T03:29:17.960Z,11.14
2019-04-22T03:30:47.594Z,11.15
2019-04-22T03:31:34.430Z,11.14
2019-04-22T03:33:36.155Z,11.22
2019-04-22T03:35:09.871Z,11.22
2019-04-22T03:37:00.762Z,11.36
2019-04-22T03:37:45.697Z,11.44
2019-04-22T03:38:20.202Z,11.50
2019-04-22T03:39:45.643Z,11.54
2019-04-22T03:41:48.168Z,11.69
2019-04-22T03:42:31.957Z,11.84
2019-04-22T03:43:33.770Z,11.97
2019-04-22T03:45:26.633Z,12.17
2019-04-22T03:46:21.187Z,12.21
2019-04-22T03:47:32.038Z,12.15
2019-04-22T03:48:17.099Z,12.03
2019-04-22T03:50:25.841Z,11.99
2019-04-22T03:51:42.932Z,11.97
2019-04-22T03:53:36.275Z,11.91
2019-04-22T03:54:32.932Z,11.91
2019-04-22T03:55:23.010Z,11.88
2019-04-22T03:56:56.447Z,11.88
2019-04-22T03:57:44.778Z,11.90
2019-04-22T03:58:11.239Z,11.90
2019-04-22T03:59:28.682Z,11.90
2019-04-22T04:00:26.684Z,12.12
2019-04-22T04:01:30.535Z,12.18
2019-04-22T04:04:27.728Z,12.10
2019-04-22T04:05:33.475Z,12.07
2019-04-22T04:06:43.394Z,12.07
2019-04-22T04:07:38.394Z,12.10
2019-04-22T04:08:30.607Z,12.07
2019-04-22T04:09:24.217Z,12.02
2019-04-22T04:10:30.214Z,11.97
2019-04-22T04:11:29.709Z,11.99
2019-04-22T04:12:25.160Z,11.91
2019-04-22T04:13:33.776Z,11.94
2019-04-22T04:16:21.696Z,11.68
2019-04-22T04:17:26.219Z,11.72
2019-04-22T04:18:18.827Z,11.75
2019-04-22T04:20:32.406Z,11.73
2019-04-22T04:22:30.222Z,11.68
2019-04-22T04:26:26.718Z,11.43
2019-04-22T04:27:50.839Z,11.36
2019-04-22T04:34:43.351Z,11.73
2019-04-22T04:35:43.363Z,11.70
2019-04-22T04:37:40.848Z,11.59
2019-04-22T04:38:21.196Z,11.51
2019-04-22T04:41:29.083Z,11.37
2019-04-22T04:43:26.074Z,11.29
2019-04-22T04:45:34.614Z,11.19
2019-04-22T04:46:43.391Z,11.11
2019-04-22T04:47:38.891Z,11.12
2019-04-22T04:48:27.662Z,11.10
2019-04-22T04:49:24.101Z,11.07
2019-04-22T04:51:26.876Z,11.05
2019-04-22T04:54:30.212Z,11.10
2019-04-22T04:55:26.678Z,11.08
2019-04-22T04:57:32.025Z,11.08
2019-04-22T04:58:36.886Z,11.10
2019-04-22T05:00:45.917Z,11.00
2019-04-22T05:01:24.618Z,11.04
2019-04-22T05:04:30.523Z,10.94
2019-04-22T05:05:37.196Z,10.96
2019-04-22T05:06:26.003Z,10.92
2019-04-22T05:07:27.802Z,10.94
2019-04-22T05:08:33.005Z,11.25
2019-04-22T05:11:26.105Z,13.12
2019-04-22T05:13:40.002Z,13.96
2019-04-22T05:14:19.226Z,14.23
2019-04-22T05:15:27.297Z,14.41
2019-04-22T05:17:18.545Z,14.41
2019-04-22T05:19:20.809Z,14.20
2019-04-22T05:20:21.443Z,13.99
2019-04-22T05:21:17.954Z,13.86
2019-04-22T05:22:13.220Z,13.78
2019-04-22T05:23:25.761Z,13.62
2019-04-22T05:24:38.462Z,13.42
2019-04-22T05:25:20.576Z,13.22
2019-04-22T05:26:22.106Z,13.13
2019-04-22T05:27:19.686Z,13.03
2019-04-22T05:28:17.834Z,12.90
2019-04-22T05:29:19.467Z,12.76
2019-04-22T05:31:16.304Z,12.61
2019-04-22T05:32:31.038Z,12.62
2019-04-22T05:33:18.720Z,12.62
2019-04-22T05:34:19.900Z,12.70
2019-04-22T05:35:14.369Z,12.75
2019-04-22T05:36:15.809Z,12.78
2019-04-22T05:37:14.589Z,12.79
2019-04-22T05:38:17.194Z,12.87
2019-04-22T05:39:11.419Z,12.94
2019-04-22T05:40:19.963Z,13.04
2019-04-22T05:41:17.946Z,13.09
2019-04-22T05:42:14.028Z,13.18
2019-04-22T05:43:14.043Z,13.28
2019-04-22T05:44:16.267Z,13.42
2019-04-22T05:45:22.983Z,13.53
2019-04-22T05:46:09.525Z,13.59
2019-04-22T05:47:16.355Z,13.57
2019-04-22T05:48:15.754Z,13.62
2019-04-22T05:49:18.286Z,13.65
2019-04-22T05:50:16.365Z,13.71
2019-04-22T05:51:21.733Z,13.79
2019-04-22T05:52:14.929Z,13.81
2019-04-22T05:53:07.138Z,13.81
2019-04-22T05:54:17.321Z,13.79
2019-04-22T05:55:16.345Z,13.78
2019-04-22T05:56:20.677Z,13.74
2019-04-22T05:57:14.265Z,13.74
2019-04-22T05:58:29.342Z,13.74
2019-04-22T05:59:12.513Z,13.72
2019-04-22T06:00:16.278Z,13.78
2019-04-22T06:02:39.428Z,13.79
2019-04-22T06:03:11.650Z,13.79
2019-04-22T06:05:14.929Z,13.89
2019-04-22T06:06:15.073Z,13.99
2019-04-22T06:07:13.411Z,14.22
2019-04-22T06:08:13.227Z,14.35
2019-04-22T06:10:21.423Z,14.50
2019-04-22T06:11:19.801Z,14.63
2019-04-22T06:12:05.005Z,14.69
2019-04-22T06:13:04.735Z,14.70
2019-04-22T06:14:08.446Z,14.72
2019-04-22T06:15:16.301Z,14.72
2019-04-22T06:16:09.281Z,14.70
2019-04-22T06:17:19.935Z,14.70
2019-04-22T06:18:20.486Z,14.81
2019-04-22T06:19:14.301Z,14.86
2019-04-22T06:20:13.719Z,14.86
2019-04-22T06:21:11.364Z,14.91
2019-04-22T06:22:25.503Z,14.96
2019-04-22T06:23:24.179Z,15.02
2019-04-22T06:24:16.635Z,15.07
2019-04-22T06:25:22.691Z,15.09
2019-04-22T06:27:14.563Z,15.28
2019-04-22T06:28:22.261Z,15.40
2019-04-22T06:29:15.931Z,15.47
2019-04-22T06:30:16.364Z,15.57
2019-04-22T06:31:18.661Z,15.65
2019-04-22T06:33:19.198Z,15.70
2019-04-22T06:34:17.711Z,15.72
2019-04-22T06:35:23.597Z,15.77
2019-04-22T06:36:16.139Z,15.88
2019-04-22T06:39:18.448Z,15.91
2019-04-22T06:40:13.439Z,15.92
2019-04-22T06:41:14.015Z,15.95
2019-04-22T06:42:13.744Z,16.01
2019-04-22T06:46:17.097Z,16.28
2019-04-22T06:47:25.219Z,16.33
2019-04-22T06:49:18.805Z,16.49
2019-04-22T06:50:16.923Z,16.56
2019-04-22T06:51:13.398Z,16.57
2019-04-22T06:52:17.750Z,16.57
2019-04-22T06:53:09.182Z,16.58
2019-04-22T06:54:17.595Z,16.61
2019-04-22T06:55:15.170Z,16.66
2019-04-22T06:56:12.582Z,16.69
2019-04-22T06:57:13.424Z,16.74
2019-04-22T06:58:10.907Z,16.81
2019-04-22T06:59:14.854Z,16.87
2019-04-22T07:00:14.343Z,16.96
2019-04-22T07:01:18.201Z,17.05
2019-04-22T07:02:18.104Z,17.08
2019-04-22T07:04:13.777Z,17.20
2019-04-22T07:05:17.953Z,17.26
2019-04-22T07:06:12.755Z,17.30
2019-04-22T07:07:12.700Z,17.30
2019-04-22T07:08:30.363Z,17.36
2019-04-22T07:10:26.463Z,17.41
2019-04-22T07:11:07.857Z,17.45
2019-04-22T07:12:11.538Z,17.49
2019-04-22T07:13:17.543Z,17.56
2019-04-22T07:14:09.052Z,17.59
2019-04-22T07:15:23.168Z,17.63
2019-04-22T07:16:15.347Z,17.67
2019-04-22T07:17:27.571Z,17.72
2019-04-22T07:18:18.387Z,17.82
2019-04-22T07:19:18.579Z,17.87
2019-04-22T07:20:10.668Z,17.92
2019-04-22T07:21:25.981Z,18.00
2019-04-22T07:23:13.865Z,18.11
2019-04-22T07:24:28.260Z,18.11
2019-04-22T07:25:10.164Z,18.10
2019-04-22T07:26:08.879Z,18.13
2019-04-22T07:28:13.963Z,18.28
2019-04-22T07:29:16.456Z,18.33
2019-04-22T07:30:15.178Z,18.38
2019-04-22T07:31:12.914Z,18.44
2019-04-22T07:32:12.946Z,18.49
2019-04-22T07:33:26.246Z,18.59
2019-04-22T07:35:20.449Z,18.74
2019-04-22T07:36:30.909Z,18.89
2019-04-22T07:37:22.701Z,19.00
2019-04-22T07:38:22.633Z,19.04
2019-04-22T07:39:10.836Z,19.18
2019-04-22T07:40:11.847Z,19.31
2019-04-22T07:41:27.017Z,19.41
2019-04-22T07:42:12.535Z,19.49
2019-04-22T07:43:20.180Z,19.55
2019-04-22T07:45:13.134Z,19.74
2019-04-22T07:46:13.530Z,19.85
2019-04-22T07:48:18.957Z,19.88
2019-04-22T07:49:13.236Z,19.91
2019-04-22T07:50:30.766Z,19.95
2019-04-22T07:51:15.466Z,20.09
2019-04-22T07:52:09.965Z,20.24
2019-04-22T07:53:10.281Z,20.36
2019-04-22T07:54:16.425Z,20.43
2019-04-22T07:55:05.599Z,20.50
2019-04-22T07:56:16.242Z,20.59
2019-04-22T07:59:15.174Z,20.81
2019-04-22T08:00:16.041Z,20.93
2019-04-22T08:01:13.973Z,21.09
2019-04-22T08:02:10.415Z,21.24
2019-04-22T08:04:30.266Z,21.58
2019-04-22T08:05:13.633Z,21.88
2019-04-22T08:07:12.367Z,22.54
2019-04-22T08:08:20.081Z,22.91
2019-04-22T08:09:16.015Z,23.18
2019-04-22T08:10:17.022Z,23.71
2019-04-22T08:11:22.467Z,24.13
2019-04-22T08:12:02.505Z,24.81
2019-04-22T08:13:11.726Z,25.38
2019-04-22T08:14:14.680Z,25.91
2019-04-22T08:15:12.567Z,26.02
2019-04-22T08:16:10.324Z,26.45
2019-04-22T08:18:12.246Z,26.97
2019-04-22T08:19:15.502Z,27.45
2019-04-22T08:20:18.785Z,27.98
2019-04-22T08:21:13.590Z,28.20
2019-04-22T08:22:07.973Z,28.41
2019-04-22T08:23:17.865Z,28.25
2019-04-22T08:24:28.611Z,28.05
2019-04-22T08:25:10.070Z,28.23
2019-04-22T08:26:16.780Z,28.76
2019-04-22T08:27:11.887Z,28.69
2019-04-22T08:28:13.338Z,29.05
2019-04-22T08:29:14.819Z,28.98
2019-04-22T08:30:14.355Z,28.94
2019-04-22T08:31:14.853Z,28.86
2019-04-22T08:32:15.204Z,28.63
2019-04-22T08:33:15.693Z,28.57
2019-04-22T08:34:14.985Z,28.56
2019-04-22T08:35:18.454Z,28.82
2019-04-22T08:36:18.387Z,28.85
2019-04-22T08:38:14.679Z,29.20
2019-04-22T08:39:14.104Z,29.51
2019-04-22T08:40:15.007Z,29.54
2019-04-22T08:41:18.163Z,29.51
2019-04-22T08:42:17.957Z,29.56
2019-04-22T08:44:17.360Z,29.54
2019-04-22T08:45:14.335Z,29.56
2019-04-22T08:46:21.653Z,29.57
2019-04-22T08:47:21.553Z,29.81
2019-04-22T08:48:07.970Z,29.78
2019-04-22T08:49:23.222Z,29.71
2019-04-22T08:51:15.144Z,29.66
2019-04-22T08:52:18.654Z,29.56
2019-04-22T08:53:14.211Z,29.65
2019-04-22T08:54:11.862Z,29.35
2019-04-22T08:55:12.698Z,29.38
2019-04-22T08:56:24.060Z,29.63
2019-04-22T08:57:15.982Z,29.59
2019-04-22T09:00:08.448Z,29.68
2019-04-22T09:01:13.660Z,30.10
2019-04-22T09:02:16.349Z,30.03
2019-04-22T09:03:11.049Z,30.28
2019-04-22T09:04:08.489Z,29.79
2019-04-22T09:05:20.432Z,29.49
2019-04-22T09:06:19.863Z,29.81
2019-04-22T09:08:14.159Z,30.10
2019-04-22T09:09:26.434Z,29.47
2019-04-22T09:10:15.153Z,29.50
2019-04-22T09:11:16.472Z,29.17
2019-04-22T09:12:20.102Z,29.51
2019-04-22T09:13:14.397Z,29.84
2019-04-22T09:14:22.571Z,30.13
2019-04-22T09:15:16.691Z,29.68
2019-04-22T09:16:17.184Z,29.65
2019-04-22T09:17:14.781Z,29.65
2019-04-22T09:18:14.310Z,29.31
2019-04-22T09:19:12.306Z,29.65
2019-04-22T09:20:13.230Z,30.24
2019-04-22T09:22:13.039Z,30.12
2019-04-22T09:23:14.985Z,29.82
2019-04-22T09:24:10.297Z,29.60
2019-04-22T09:25:06.698Z,30.28
2019-04-22T09:26:10.707Z,30.23
2019-04-22T09:27:22.663Z,29.90
2019-04-22T09:28:15.236Z,29.76
2019-04-22T09:29:12.770Z,29.69
2019-04-22T09:30:15.105Z,29.78
2019-04-22T09:31:11.399Z,29.72
2019-04-22T09:32:16.096Z,29.98
2019-04-22T09:33:14.077Z,30.18
2019-04-22T09:34:06.778Z,29.94
2019-04-22T09:35:09.762Z,29.49
2019-04-22T09:36:16.824Z,29.36
2019-04-22T09:38:28.156Z,29.91
2019-04-22T09:39:10.729Z,29.59
2019-04-22T09:40:22.344Z,29.63
2019-04-22T09:41:16.132Z,29.36
2019-04-22T09:42:11.526Z,29.08
2019-04-22T09:43:17.171Z,29.19
2019-04-22T09:44:09.407Z,28.52
2019-04-22T09:45:13.169Z,28.67
2019-04-22T09:46:19.690Z,28.79
2019-04-22T09:47:16.559Z,29.31
2019-04-22T09:48:16.678Z,29.72
2019-04-22T09:49:23.778Z,30.21
2019-04-22T09:50:09.894Z,29.93
2019-04-22T09:51:11.597Z,29.19
2019-04-22T09:52:13.083Z,28.48
2019-04-22T09:53:08.357Z,28.12
2019-04-22T09:54:17.945Z,28.51
2019-04-22T09:55:15.393Z,29.13
2019-04-22T09:56:09.773Z,28.96
2019-04-22T09:57:08.980Z,28.75
2019-04-22T09:58:13.492Z,27.95
2019-04-22T09:59:07.723Z,28.01
2019-04-22T10:00:13.987Z,28.10
2019-04-22T10:01:18.699Z,28.52
2019-04-22T10:03:16.036Z,28.60
2019-04-22T10:04:06.443Z,28.41
2019-04-22T10:05:15.111Z,28.26
2019-04-22T10:06:16.528Z,27.80
2019-04-22T10:07:17.622Z,27.83
2019-04-22T10:08:18.284Z,27.75
2019-04-22T10:11:13.422Z,26.95
2019-04-22T10:12:10.164Z,27.14
2019-04-22T10:13:12.865Z,26.97
2019-04-22T10:14:16.942Z,26.71
2019-04-22T10:15:06.451Z,27.00
2019-04-22T10:16:15.426Z,26.75
2019-04-22T10:17:07.786Z,26.25
2019-04-22T10:18:09.332Z,25.95
2019-04-22T10:19:11.088Z,26.19
2019-04-22T10:20:10.218Z,26.28
2019-04-22T10:21:14.482Z,26.29
2019-04-22T10:22:14.957Z,26.45
2019-04-22T10:23:17.670Z,26.48
2019-04-22T10:24:09.190Z,26.45
2019-04-22T10:25:10.453Z,26.40
2019-04-22T10:26:12.986Z,26.15
2019-04-22T10:27:08.158Z,26.02
2019-04-22T10:28:15.658Z,25.93
2019-04-22T10:29:14.072Z,25.87
2019-04-22T10:30:15.116Z,25.93
2019-04-22T10:31:09.947Z,26.09
2019-04-22T10:32:07.058Z,26.13
2019-04-22T10:33:08.799Z,26.21
2019-04-22T10:33:58.498Z,26.16
2019-04-22T10:34:51.230Z,25.96
2019-04-22T10:35:45.630Z,25.93
2019-04-22T10:36:50.453Z,25.63
2019-04-22T10:37:45.987Z,25.69
2019-04-22T10:38:44.534Z,25.90
2019-04-22T10:39:51.306Z,25.84
2019-04-22T10:40:44.891Z,25.88
2019-04-22T10:41:44.299Z,25.95
2019-04-22T10:42:45.170Z,25.73
2019-04-22T10:43:43.768Z,25.75
2019-04-22T10:44:45.215Z,25.90
2019-04-22T10:45:44.002Z,26.10
2019-04-22T10:46:44.359Z,26.29
2019-04-22T10:47:43.700Z,26.44
2019-04-22T10:48:44.256Z,26.52
2019-04-22T10:49:44.483Z,26.65
2019-04-22T10:50:43.639Z,26.75
2019-04-22T10:51:44.494Z,26.75
2019-04-22T10:52:43.642Z,26.66
2019-04-22T10:53:43.837Z,26.65
2019-04-22T10:54:43.652Z,26.68
2019-04-22T10:55:45.288Z,26.53
2019-04-22T10:56:43.582Z,26.43
2019-04-22T10:57:44.395Z,26.07
2019-04-22T10:58:44.641Z,26.09
2019-04-22T10:59:44.749Z,26.09
2019-04-22T11:00:43.542Z,25.93
2019-04-22T11:01:44.429Z,26.03
2019-04-22T11:02:43.795Z,26.21
2019-04-22T11:03:43.519Z,26.18
2019-04-22T11:04:43.977Z,26.22
2019-04-22T11:05:44.317Z,26.41
2019-04-22T11:06:52.362Z,26.45
2019-04-22T11:07:53.289Z,26.44
2019-04-22T11:08:52.334Z,26.53
2019-04-22T11:09:54.439Z,26.74
2019-04-22T11:11:00.638Z,27.26
2019-04-22T11:11:51.087Z,27.73
2019-04-22T11:12:45.194Z,27.82
2019-04-22T11:13:44.124Z,28.56
2019-04-22T11:14:43.433Z,29.20
2019-04-22T11:15:44.607Z,29.42
2019-04-22T11:16:43.631Z,29.34
2019-04-22T11:17:43.824Z,29.34
2019-04-22T11:18:43.465Z,29.19
2019-04-22T11:19:43.580Z,29.12
2019-04-22T11:20:44.010Z,28.91
2019-04-22T11:21:44.663Z,28.85
2019-04-22T11:22:44.647Z,28.42
2019-04-22T11:23:44.671Z,28.30
2019-04-22T11:24:44.356Z,27.82
2019-04-22T11:25:43.930Z,27.40
2019-04-22T11:26:43.298Z,26.95
2019-04-22T11:27:44.398Z,26.75
2019-04-22T11:28:43.484Z,26.80
2019-04-22T11:29:43.599Z,26.68
2019-04-22T11:30:44.606Z,26.56
2019-04-22T11:31:44.343Z,26.37
2019-04-22T11:32:44.499Z,26.28
2019-04-22T11:33:44.459Z,26.33
2019-04-22T11:34:43.210Z,26.36
2019-04-22T11:35:43.801Z,26.37
2019-04-22T11:36:43.213Z,26.37
2019-04-22T11:37:43.203Z,26.43
2019-04-22T11:38:47.141Z,26.56
2019-04-22T11:39:48.155Z,26.78
2019-04-22T11:40:49.943Z,26.89
2019-04-22T11:41:46.313Z,26.97
2019-04-22T11:42:44.101Z,27.17
2019-04-22T11:43:43.216Z,27.30
2019-04-22T11:44:43.554Z,27.74
2019-04-22T11:45:43.080Z,28.27
2019-04-22T11:46:43.269Z,28.75
2019-04-22T11:47:43.328Z,29.05
2019-04-22T11:48:43.059Z,29.08
2019-04-22T11:49:43.898Z,29.14
2019-04-22T11:50:43.973Z,29.36
2019-04-22T11:51:43.031Z,29.65
2019-04-22T11:52:43.028Z,29.57
2019-04-22T11:53:42.990Z,29.54
2019-04-22T11:54:43.268Z,29.19
2019-04-22T11:55:42.977Z,29.32
2019-04-22T11:56:43.076Z,29.31
2019-04-22T11:57:43.054Z,29.05
2019-04-22T11:58:42.949Z,29.27
2019-04-22T11:59:42.942Z,29.23
2019-04-22T12:00:43.240Z,29.16
2019-04-22T12:01:42.934Z,29.42
2019-04-22T12:02:43.079Z,29.69
2019-04-22T12:03:44.199Z,30.05
2019-04-22T12:04:43.598Z,30.02
2019-04-22T12:05:43.914Z,30.08
2019-04-22T12:06:44.072Z,29.68
2019-04-22T12:07:42.877Z,29.19
2019-04-22T12:08:43.722Z,29.27
2019-04-22T12:09:43.643Z,29.54
2019-04-22T12:10:50.606Z,29.71
2019-04-22T12:11:44.434Z,29.61
2019-04-22T12:12:44.810Z,29.32
2019-04-22T12:13:44.080Z,29.50
2019-04-22T12:14:42.805Z,29.75
2019-04-22T12:15:42.860Z,30.19
2019-04-22T12:16:43.901Z,30.35
2019-04-22T12:17:42.783Z,30.23
2019-04-22T12:18:43.062Z,30.05
2019-04-22T12:19:44.221Z,30.12
2019-04-22T12:20:43.356Z,29.71
2019-04-22T12:21:42.769Z,29.53
2019-04-22T12:22:42.963Z,29.36
2019-04-22T12:23:43.434Z,29.13
2019-04-22T12:24:42.697Z,29.13
2019-04-22T12:25:51.668Z,29.29
2019-04-22T12:26:44.212Z,29.13
2019-04-22T12:27:43.113Z,28.85
2019-04-22T12:28:42.676Z,28.75
2019-04-22T12:29:42.972Z,28.79
2019-04-22T12:30:43.518Z,28.62
2019-04-22T12:31:42.634Z,29.01
2019-04-22T12:32:43.563Z,29.13
2019-04-22T12:33:43.398Z,29.54
2019-04-22T12:34:43.672Z,29.60
2019-04-22T12:35:42.592Z,29.79
2019-04-22T12:36:42.759Z,29.93
2019-04-22T12:37:49.906Z,30.02
2019-04-22T12:38:44.990Z,30.00
2019-04-22T12:39:45.293Z,29.65
2019-04-22T12:40:51.195Z,29.35
2019-04-22T12:41:44.336Z,29.36
2019-04-22T12:42:42.944Z,29.01
2019-04-22T12:43:43.249Z,28.70
2019-04-22T12:44:44.110Z,28.70
2019-04-22T12:45:42.562Z,28.76
2019-04-22T12:46:43.672Z,29.23
2019-04-22T12:47:42.474Z,28.85
2019-04-22T12:48:43.387Z,29.14
2019-04-22T12:49:46.056Z,29.12
2019-04-22T12:50:44.471Z,28.84
2019-04-22T12:51:42.960Z,28.62
2019-04-22T12:52:50.529Z,28.74
2019-04-22T12:53:44.583Z,28.82
2019-04-22T12:54:42.654Z,28.75
2019-04-22T12:55:43.586Z,28.93
2019-04-22T12:56:43.864Z,29.10
2019-04-22T12:57:42.822Z,29.36
2019-04-22T12:58:43.395Z,29.49
2019-04-22T12:59:43.638Z,29.51
2019-04-22T13:00:44.589Z,29.49
2019-04-22T13:01:42.685Z,29.26
2019-04-22T13:02:43.116Z,29.60
2019-04-22T13:03:42.663Z,29.24
2019-04-22T13:04:43.460Z,29.12
2019-04-22T13:05:53.870Z,29.12
2019-04-22T13:06:44.024Z,29.20
2019-04-22T13:07:44.185Z,29.22
2019-04-22T13:08:43.578Z,29.10
2019-04-22T13:09:43.298Z,29.08
2019-04-22T13:10:53.698Z,29.22
2019-04-22T13:11:45.872Z,28.76
2019-04-22T13:12:42.821Z,28.93
2019-04-22T13:13:42.867Z,28.89
2019-04-22T13:14:43.337Z,28.75
2019-04-22T13:15:42.441Z,28.85
2019-04-22T13:16:42.931Z,29.01
2019-04-22T13:17:44.213Z,28.86
2019-04-22T13:18:50.255Z,29.10
2019-04-22T13:19:44.345Z,29.12
2019-04-22T13:20:42.217Z,29.07
2019-04-22T13:21:42.760Z,28.79
2019-04-22T13:22:43.022Z,28.88
2019-04-22T13:23:42.136Z,28.91
2019-04-22T13:24:42.100Z,28.94
2019-04-22T13:25:42.922Z,29.02
2019-04-22T13:26:43.068Z,28.86
2019-04-22T13:27:42.885Z,28.41
2019-04-22T13:28:43.199Z,28.63
2019-04-22T13:29:43.482Z,28.75
2019-04-22T13:30:42.034Z,28.89
2019-04-22T13:31:42.494Z,29.02
2019-04-22T13:32:42.981Z,28.96
2019-04-22T13:33:43.061Z,28.76
2019-04-22T13:34:46.625Z,28.82
2019-04-22T13:35:47.810Z,28.96
2019-04-22T13:36:44.652Z,29.10
2019-04-22T13:37:43.446Z,29.05
2019-04-22T13:38:44.899Z,29.05
2019-04-22T13:39:43.197Z,29.19
2019-04-22T13:40:59.530Z,29.31
2019-04-22T13:41:49.825Z,29.29
2019-04-22T13:42:42.925Z,29.38
2019-04-22T13:43:42.907Z,29.32
2019-04-22T13:44:41.909Z,29.45
2019-04-22T13:45:41.909Z,28.88
2019-04-22T13:47:02.120Z,28.66
2019-04-22T13:49:09.637Z,28.56
2019-04-22T13:50:17.209Z,28.37
2019-04-22T13:52:22.621Z,28.23
2019-04-22T13:53:22.088Z,28.20
2019-04-22T13:54:14.047Z,28.57
2019-04-22T13:54:40.716Z,28.05
2019-04-22T13:55:13.656Z,27.90
2019-04-22T13:56:05.572Z,27.64
2019-04-22T13:57:01.672Z,27.55
2019-04-22T13:58:02.614Z,28.02
2019-04-22T13:58:58.901Z,28.12
2019-04-22T13:59:46.965Z,28.08
2019-04-22T14:00:42.764Z,28.20
2019-04-22T14:01:43.052Z,28.47
2019-04-22T14:02:42.569Z,28.23
2019-04-22T14:03:42.825Z,28.07
2019-04-22T14:04:42.930Z,28.17
2019-04-22T14:05:42.622Z,28.20
2019-04-22T14:06:42.876Z,27.92
2019-04-22T14:07:43.083Z,27.98
2019-04-22T14:08:43.026Z,28.11
2019-04-22T14:09:42.296Z,27.93
2019-04-22T14:10:42.793Z,28.12
2019-04-22T14:11:49.705Z,28.14
2019-04-22T14:12:42.732Z,28.01
2019-04-22T14:13:41.941Z,28.07
2019-04-22T14:14:42.810Z,27.96
2019-04-22T14:15:42.268Z,27.92
2019-04-22T14:16:42.788Z,27.89
2019-04-22T14:17:43.216Z,27.90
2019-04-22T14:18:44.250Z,28.08
2019-04-22T14:19:42.354Z,28.00
2019-04-22T14:20:42.806Z,27.98
2019-04-22T14:21:44.265Z,27.77
2019-04-22T14:22:44.302Z,27.65
2019-04-22T14:23:42.563Z,27.45
2019-04-22T14:24:42.685Z,27.52
2019-04-22T14:25:43.002Z,27.59
2019-04-22T14:26:54.966Z,27.42
2019-04-22T14:27:51.118Z,27.60
2019-04-22T14:28:43.750Z,27.32
2019-04-22T14:29:41.973Z,27.37
2019-04-22T14:30:42.502Z,27.65
2019-04-22T14:31:42.493Z,27.67
2019-04-22T14:32:42.191Z,27.68